Terminal Aerodrome Forecast
Issued by NWS

Home | Current Version | Previous Version | Text Only | Print | Product List | Glossary On
Versions: 1 2 3 4 5 6 7 8 9 10 11 12
000
FTUS45 KRIW 210500
TAFCPR
TAF
KCPR 210538Z 2106/2206 22014G20KT P6SM FEW120 SCT200
     FM211100 23020G30KT P6SM BKN100
     FM211500 23028G36KT P6SM SCT040 BKN090
     FM220000 27014G24KT P6SM VCSH SCT040 BKN070=

USA.gov is the U.S. government's official web portal to all federal, state and local government web resources and services.